Time;durP1;ratioP1;P1;durP2;ratioP2;P2;SDS_P1;SDS_P2;PMS_P1;PMS_P2;Temp;Humidity;BMP_temperature;BMP_pressure;BME280_temperature;BME280_humidity;BME280_pressure;Samples;Min_cycle;Max_cycle;Signal;HPM_P1;HPM_P2
2023/08/21 00:01:36;;;;;;;;;;;;;;;27.23;nan;102234.88;5054201;28;19917;-82
2023/08/21 00:04:02;;;;;;;;;;;;;;;27.21;nan;102225.34;5054319;28;20030;-82
2023/08/21 00:06:28;;;;;;;;;;;;;;;27.15;nan;102221.94;5052824;28;19920;-82
2023/08/21 00:08:53;;;;;;;;;;;;;;;27.10;nan;102224.84;5059747;28;20198;-82
2023/08/21 00:11:18;;;;;;;;;;;;;;;27.06;nan;102221.13;5063344;28;19987;-82
2023/08/21 00:13:44;;;;;;;;;;;;;;;27.02;nan;102220.16;5062852;28;19917;-82
2023/08/21 00:16:10;;;;;;;;;;;;;;;26.97;nan;102212.88;5060244;28;19924;-82
2023/08/21 00:18:36;;;;;;;;;;;;;;;26.91;nan;102219.66;5059221;28;20050;-82
2023/08/21 00:21:01;;;;;;;;;;;;;;;26.87;nan;102209.63;5059244;28;20027;-82
2023/08/21 00:23:26;;;;;;;;;;;;;;;26.85;nan;102209.94;5057424;28;20460;-82
2023/08/21 00:25:52;;;;;;;;;;;;;;;26.83;nan;102212.22;5055586;28;19968;-82
2023/08/21 00:28:17;;;;;;;;;;;;;;;26.80;nan;102202.69;5058912;28;20338;-82
2023/08/21 00:30:42;;;;;;;;;;;;;;;26.78;nan;102209.63;5063900;28;20399;-82
2023/08/21 00:33:08;;;;;;;;;;;;;;;26.77;nan;102206.06;5067089;28;20552;-82
2023/08/21 00:35:33;;;;;;;;;;;;;;;26.75;nan;102202.84;5062562;28;19921;-82
2023/08/21 00:37:58;;;;;;;;;;;;;;;26.73;nan;102212.53;5067185;28;20336;-82
2023/08/21 00:40:24;;;;;;;;;;;;;;;26.69;nan;102206.06;5064777;28;19925;-82
2023/08/21 00:42:49;;;;;;;;;;;;;;;26.61;nan;102209.63;5062716;28;19941;-82
2023/08/21 00:45:14;;;;;;;;;;;;;;;26.53;nan;102205.72;5058824;28;19917;-82
2023/08/21 00:47:40;;;;;;;;;;;;;;;26.45;nan;102215.56;5063811;28;19931;-82
2023/08/21 00:50:06;;;;;;;;;;;;;;;26.42;nan;102212.66;5062655;28;19933;-82
2023/08/21 00:52:32;;;;;;;;;;;;;;;26.38;nan;102212.47;5063654;28;19924;-82
2023/08/21 00:54:58;;;;;;;;;;;;;;;26.36;nan;102211.97;5062504;28;19963;-82
2023/08/21 00:57:23;;;;;;;;;;;;;;;26.34;nan;102214.22;5061881;28;20447;-82
2023/08/21 00:59:49;;;;;;;;;;;;;;;26.31;nan;102212.09;5058341;28;19983;-82
2023/08/21 01:02:14;;;;;;;;;;;;;;;26.28;nan;102214.69;5058938;28;19927;-82
2023/08/21 01:04:40;;;;;;;;;;;;;;;26.25;nan;102218.06;5063266;28;19913;-82
2023/08/21 01:07:09;;;;;;;;;;;;;;;26.24;nan;102216.47;5065553;28;20014;-82
2023/08/21 01:09:44;;;;;;;;;;;;;;;26.20;nan;102214.31;5062185;28;19936;-82
2023/08/21 01:12:16;;;;;;;;;;;;;;;26.18;nan;102216.59;5057187;28;19928;-82
2023/08/21 01:15:00;;;;;;;;;;;;;;;26.18;nan;102222.06;5059489;28;19979;-82
2023/08/21 01:17:28;;;;;;;;;;;;;;;26.13;nan;102227.72;5057106;28;19928;-82
2023/08/21 01:19:54;;;;;;;;;;;;;;;26.14;nan;102223.03;5055177;28;20415;-82
2023/08/21 01:22:19;;;;;;;;;;;;;;;26.14;nan;102217.53;5053350;28;19921;-82
2023/08/21 01:24:44;;;;;;;;;;;;;;;26.10;nan;102216.56;5057420;28;19921;-82
2023/08/21 01:27:10;;;;;;;;;;;;;;;26.08;nan;102219.63;5062624;28;19927;-82
2023/08/21 01:29:36;;;;;;;;;;;;;;;26.06;nan;102216.41;5060576;28;20311;-82
2023/08/21 01:32:14;;;;;;;;;;;;;;;26.02;nan;102207.16;5060463;28;20304;-82
2023/08/21 01:34:40;;;;;;;;;;;;;;;25.98;nan;102203.44;5059487;28;19963;-82
2023/08/21 01:37:06;;;;;;;;;;;;;;;25.96;nan;102204.88;5063679;28;20193;-82
2023/08/21 01:39:32;;;;;;;;;;;;;;;25.92;nan;102198.41;5065242;28;19916;-82
2023/08/21 01:41:57;;;;;;;;;;;;;;;25.89;nan;102202.59;5064248;28;19920;-82
2023/08/21 01:44:23;;;;;;;;;;;;;;;25.87;nan;102207.59;5061616;28;19920;-82
2023/08/21 01:46:48;;;;;;;;;;;;;;;25.79;nan;102211.91;5063927;28;20385;-83
2023/08/21 01:49:13;;;;;;;;;;;;;;;25.72;nan;102221.72;5064170;28;19927;-82
2023/08/21 01:51:39;;;;;;;;;;;;;;;25.67;nan;102208.09;5063295;28;19952;-83
2023/08/21 01:54:04;;;;;;;;;;;;;;;25.63;nan;102207.09;5063823;28;19966;-82
2023/08/21 01:56:29;;;;;;;;;;;;;;;25.59;nan;102206.94;5058510;28;19971;-82
2023/08/21 01:58:54;;;;;;;;;;;;;;;25.54;nan;102198.84;5050632;28;19924;-82
2023/08/21 02:01:20;;;;;;;;;;;;;;;25.51;nan;102191.25;5047660;28;20308;-82
2023/08/21 02:03:45;;;;;;;;;;;;;;;25.48;nan;102203.63;5060962;28;19917;-82
2023/08/21 02:06:11;;;;;;;;;;;;;;;25.45;nan;102204.25;5059431;28;19920;-82
2023/08/21 02:08:36;;;;;;;;;;;;;;;25.41;nan;102200.53;5062392;28;19935;-83
2023/08/21 02:11:02;;;;;;;;;;;;;;;25.40;nan;102198.91;5060098;28;19928;-82
2023/08/21 02:13:27;;;;;;;;;;;;;;;25.37;nan;102196.81;5059219;28;20456;-82
2023/08/21 02:15:52;;;;;;;;;;;;;;;25.36;nan;102202.59;5061963;28;19916;-82
2023/08/21 02:18:18;;;;;;;;;;;;;;;25.34;nan;102193.88;5064275;28;20439;-82
2023/08/21 02:20:43;;;;;;;;;;;;;;;25.30;nan;102205.44;5056562;28;20031;-82
2023/08/21 02:23:08;;;;;;;;;;;;;;;25.29;nan;102197.53;5060186;28;19926;-82
2023/08/21 02:25:34;;;;;;;;;;;;;;;25.32;nan;102202.44;5059791;28;19924;-82
2023/08/21 02:27:59;;;;;;;;;;;;;;;25.29;nan;102200.28;5057561;28;19917;-82
2023/08/21 02:30:25;;;;;;;;;;;;;;;25.27;nan;102197.03;5060879;28;19921;-82
2023/08/21 02:32:51;;;;;;;;;;;;;;;25.26;nan;102204.47;5057724;28;19924;-82
2023/08/21 02:35:17;;;;;;;;;;;;;;;25.25;nan;102207.53;5057515;28;19925;-82
2023/08/21 02:37:42;;;;;;;;;;;;;;;25.19;nan;102208.78;5059543;28;19922;-82
2023/08/21 02:40:08;;;;;;;;;;;;;;;25.15;nan;102207.78;5058416;28;19927;-82
2023/08/21 02:42:34;;;;;;;;;;;;;;;25.10;nan;102200.47;5063447;28;19924;-82
2023/08/21 02:44:59;;;;;;;;;;;;;;;25.06;nan;102201.41;5056388;28;19952;-82
2023/08/21 02:47:24;;;;;;;;;;;;;;;25.03;nan;102199.28;5060043;28;19943;-82
2023/08/21 02:49:50;;;;;;;;;;;;;;;24.99;nan;102202.66;5061427;28;20368;-82
2023/08/21 02:52:15;;;;;;;;;;;;;;;24.97;nan;102198.59;5058690;28;19969;-82
2023/08/21 02:54:40;;;;;;;;;;;;;;;24.94;nan;102207.41;5059307;28;20426;-83
2023/08/21 02:57:05;;;;;;;;;;;;;;;24.91;nan;102217.06;5056344;28;19944;-82
2023/08/21 02:59:31;;;;;;;;;;;;;;;24.90;nan;102218.19;5059982;28;19917;-82
2023/08/21 03:01:56;;;;;;;;;;;;;;;24.88;nan;102209.47;5059457;28;19995;-82
2023/08/21 03:04:23;;;;;;;;;;;;;;;24.88;nan;102209.47;5056659;28;20295;-82
2023/08/21 03:06:48;;;;;;;;;;;;;;;24.87;nan;102213.31;5057056;28;20166;-82
2023/08/21 03:09:13;;;;;;;;;;;;;;;24.86;nan;102210.91;5061946;28;19966;-82
2023/08/21 03:11:38;;;;;;;;;;;;;;;24.83;nan;102201.38;5057870;28;19927;-83
2023/08/21 03:14:04;;;;;;;;;;;;;;;24.83;nan;102197.81;5063237;28;19925;-83
2023/08/21 03:16:29;;;;;;;;;;;;;;;24.82;nan;102194.25;5056889;28;19916;-82
2023/08/21 03:18:56;;;;;;;;;;;;;;;24.83;nan;102173.97;5061299;28;19923;-83
2023/08/21 03:21:23;;;;;;;;;;;;;;;24.80;nan;102174.59;5061823;28;20408;-82
2023/08/21 03:23:49;;;;;;;;;;;;;;;24.79;nan;102181.19;5057925;28;19935;-82
2023/08/21 03:26:14;;;;;;;;;;;;;;;24.75;nan;102188.38;5056402;28;19920;-82
2023/08/21 03:28:40;;;;;;;;;;;;;;;24.68;nan;102185.25;5060041;28;19925;-82
2023/08/21 03:31:05;;;;;;;;;;;;;;;24.58;nan;102182.75;5064901;28;20049;-82
2023/08/21 03:33:30;;;;;;;;;;;;;;;24.52;nan;102183.97;5056945;28;20289;-82
2023/08/21 03:35:56;;;;;;;;;;;;;;;24.53;nan;102185.59;5061776;28;19932;-82
2023/08/21 03:38:21;;;;;;;;;;;;;;;24.54;nan;102188.03;5060475;28;19927;-82
2023/08/21 03:40:46;;;;;;;;;;;;;;;24.53;nan;102186.41;5062162;28;20007;-82
2023/08/21 03:43:11;;;;;;;;;;;;;;;24.54;nan;102181.75;5062271;28;20069;-82
2023/08/21 03:45:37;;;;;;;;;;;;;;;24.55;nan;102180.63;5064592;28;19931;-82
2023/08/21 03:48:02;;;;;;;;;;;;;;;24.55;nan;102180.63;5067025;28;19917;-82
2023/08/21 03:50:27;;;;;;;;;;;;;;;24.56;nan;102179.50;5065805;28;19932;-82
2023/08/21 03:52:53;;;;;;;;;;;;;;;24.55;nan;102183.34;5063812;28;19917;-82
2023/08/21 03:55:18;;;;;;;;;;;;;;;24.55;nan;102184.16;5062685;28;19940;-82
2023/08/21 03:57:43;;;;;;;;;;;;;;;24.54;nan;102182.56;5067882;28;20377;-83
2023/08/21 04:00:09;;;;;;;;;;;;;;;24.57;nan;102186.59;5062989;28;19974;-82
2023/08/21 04:02:34;;;;;;;;;;;;;;;24.58;nan;102183.56;5060238;28;20011;-83
2023/08/21 04:04:59;;;;;;;;;;;;;;;24.61;nan;102190.38;5063311;28;19921;-82
2023/08/21 04:07:25;;;;;;;;;;;;;;;24.64;nan;102200.72;5065577;28;19921;-82
2023/08/21 04:09:50;;;;;;;;;;;;;;;24.65;nan;102191.38;5061999;28;20360;-82
2023/08/21 04:12:15;;;;;;;;;;;;;;;24.67;nan;102203.63;5061375;28;19927;-82
2023/08/21 04:14:41;;;;;;;;;;;;;;;24.68;nan;102199.78;5065004;28;19946;-82
2023/08/21 04:17:06;;;;;;;;;;;;;;;24.66;nan;102196.53;5062851;28;19920;-82
2023/08/21 04:19:33;;;;;;;;;;;;;;;24.65;nan;102200.41;5061899;28;19962;-83
2023/08/21 04:21:59;;;;;;;;;;;;;;;24.59;nan;102198.88;5062160;28;19956;-82
2023/08/21 04:24:24;;;;;;;;;;;;;;;24.54;nan;102195.44;5065105;28;19960;-82
2023/08/21 04:26:49;;;;;;;;;;;;;;;24.50;nan;102199.91;5061861;28;19917;-82
2023/08/21 04:29:15;;;;;;;;;;;;;;;24.43;nan;102196.78;5062023;28;20395;-82
2023/08/21 04:31:40;;;;;;;;;;;;;;;24.36;nan;102205.41;5063725;28;19920;-82
2023/08/21 04:34:05;;;;;;;;;;;;;;;24.32;nan;102216.16;5063395;28;20399;-82
2023/08/21 04:36:31;;;;;;;;;;;;;;;24.31;nan;102217.28;5062571;28;20398;-82
2023/08/21 04:38:56;;;;;;;;;;;;;;;24.36;nan;102214.44;5060303;28;19962;-82
2023/08/21 04:41:21;;;;;;;;;;;;;;;24.43;nan;102219.53;5067274;28;19959;-82
2023/08/21 04:43:47;;;;;;;;;;;;;;;24.52;nan;102211.38;5063792;28;20406;-82
2023/08/21 04:46:12;;;;;;;;;;;;;;;24.59;nan;102204.34;5065270;28;19917;-82
2023/08/21 04:48:37;;;;;;;;;;;;;;;24.66;nan;102210.25;5061359;28;19924;-83
2023/08/21 04:51:03;;;;;;;;;;;;;;;24.73;nan;102218.03;5060945;28;19917;-82
2023/08/21 04:53:29;;;;;;;;;;;;;;;24.82;nan;102229.09;5060543;28;19924;-82
2023/08/21 04:55:54;;;;;;;;;;;;;;;24.88;nan;102228.66;5061219;28;19916;-82
2023/08/21 04:58:19;;;;;;;;;;;;;;;24.94;nan;102224.66;5059870;28;19939;-82
2023/08/21 05:00:45;;;;;;;;;;;;;;;25.00;nan;102228.97;5059149;28;19925;-82
2023/08/21 05:03:12;;;;;;;;;;;;;;;25.07;nan;102228.53;5063164;28;20580;-82
2023/08/21 05:05:37;;;;;;;;;;;;;;;25.14;nan;102228.09;5057437;28;20484;-82
2023/08/21 05:08:03;;;;;;;;;;;;;;;25.15;nan;102222.31;5059273;28;19995;-82
2023/08/21 05:10:28;;;;;;;;;;;;;;;25.17;nan;102225.56;5061625;28;20051;-82
2023/08/21 05:12:53;;;;;;;;;;;;;;;25.20;nan;102230.41;5063741;28;19921;-82
2023/08/21 05:15:19;;;;;;;;;;;;;;;25.22;nan;102227.34;5063475;28;19916;-82
2023/08/21 05:17:44;;;;;;;;;;;;;;;25.24;nan;102222.38;5060756;28;19920;-82
2023/08/21 05:20:13;;;;;;;;;;;;;;;25.25;nan;102224.78;5064407;28;19920;-83
2023/08/21 05:22:38;;;;;;;;;;;;;;;25.27;nan;102227.22;5062659;28;20449;-83
2023/08/21 05:25:05;;;;;;;;;;;;;;;25.29;nan;102235.94;5060986;28;19916;-83
2023/08/21 05:27:30;;;;;;;;;;;;;;;25.31;nan;102233.69;5064637;28;20376;-82
2023/08/21 05:29:55;;;;;;;;;;;;;;;25.34;nan;102241.31;5065892;28;19927;-83
2023/08/21 05:32:20;;;;;;;;;;;;;;;25.39;nan;102238.44;5066639;28;19916;-83
2023/08/21 05:34:46;;;;;;;;;;;;;;;25.46;nan;102236.06;5062767;28;20671;-83
2023/08/21 05:37:11;;;;;;;;;;;;;;;25.56;nan;102233.06;5063511;28;20045;-83
2023/08/21 05:39:36;;;;;;;;;;;;;;;25.65;nan;102222.13;5060402;28;19924;-83
2023/08/21 05:42:02;;;;;;;;;;;;;;;25.77;nan;102218.84;5064875;28;19920;-83
2023/08/21 05:44:27;;;;;;;;;;;;;;;25.89;nan;102224.56;5059250;28;20002;-83
2023/08/21 05:46:53;;;;;;;;;;;;;;;25.99;nan;102232.50;5061563;28;20388;-83
2023/08/21 05:49:19;;;;;;;;;;;;;;;26.08;nan;102233.38;5065653;28;19921;-83
2023/08/21 05:51:44;;;;;;;;;;;;;;;26.19;nan;102236.63;5064361;28;19920;-83
2023/08/21 05:54:09;;;;;;;;;;;;;;;26.31;nan;102241.53;5059907;28;20551;-83
2023/08/21 05:56:34;;;;;;;;;;;;;;;26.40;nan;102245.16;5058102;28;20643;-83
2023/08/21 05:59:00;;;;;;;;;;;;;;;26.48;nan;102247.91;5059903;28;19917;-83
2023/08/21 06:01:25;;;;;;;;;;;;;;;26.59;nan;102228.38;5058405;28;20403;-83
2023/08/21 06:03:50;;;;;;;;;;;;;;;26.67;nan;102241.31;5059884;28;19920;-83
2023/08/21 06:06:16;;;;;;;;;;;;;;;26.77;nan;102247.31;5058739;28;19916;-83
2023/08/21 06:08:41;;;;;;;;;;;;;;;26.84;nan;102251.53;5060914;28;19971;-83
2023/08/21 06:11:06;;;;;;;;;;;;;;;26.90;nan;102255.72;5059321;28;20384;-83
2023/08/21 06:13:31;;;;;;;;;;;;;;;26.92;nan;102253.47;5057627;28;19924;-83
2023/08/21 06:15:57;;;;;;;;;;;;;;;26.92;nan;102258.97;5061616;28;19973;-83
2023/08/21 06:18:22;;;;;;;;;;;;;;;26.96;nan;102247.00;5057676;28;19939;-83
2023/08/21 06:20:48;;;;;;;;;;;;;;;27.00;nan;102250.75;5058518;28;19921;-83
2023/08/21 06:23:13;;;;;;;;;;;;;;;27.09;nan;102259.00;5061538;28;19921;-83
2023/08/21 06:25:39;;;;;;;;;;;;;;;27.20;nan;102254.78;5058897;28;19934;-83
2023/08/21 06:28:04;;;;;;;;;;;;;;;27.34;nan;102255.44;5060668;28;19923;-83
2023/08/21 06:30:29;;;;;;;;;;;;;;;27.48;nan;102248.94;5060781;28;20380;-83
2023/08/21 06:32:55;;;;;;;;;;;;;;;27.60;nan;102247.13;5059183;28;20022;-83
2023/08/21 06:35:20;;;;;;;;;;;;;;;27.67;nan;102241.16;5058356;28;20430;-83
2023/08/21 06:37:46;;;;;;;;;;;;;;;27.73;nan;102241.78;5063596;28;19924;-83
2023/08/21 06:40:11;;;;;;;;;;;;;;;27.81;nan;102246.44;5060431;28;19924;-84
2023/08/21 06:42:37;;;;;;;;;;;;;;;27.89;nan;102242.88;5058085;28;20007;-83
2023/08/21 06:45:03;;;;;;;;;;;;;;;28.00;nan;102247.66;5061148;28;20348;-83
2023/08/21 06:47:28;;;;;;;;;;;;;;;28.16;nan;102255.38;5065102;28;19920;-83
2023/08/21 06:49:54;;;;;;;;;;;;;;;28.35;nan;102253.03;5065277;28;19920;-83
2023/08/21 06:52:19;;;;;;;;;;;;;;;28.48;nan;102248.44;5063127;28;19926;-83
2023/08/21 06:54:44;;;;;;;;;;;;;;;28.61;nan;102247.41;5062502;28;19927;-83
2023/08/21 06:57:09;;;;;;;;;;;;;;;28.71;nan;102246.19;5062977;28;20384;-83
2023/08/21 06:59:36;;;;;;;;;;;;;;;28.84;nan;102256.16;5060683;28;20499;-83
2023/08/21 07:02:04;;;;;;;;;;;;;;;28.94;nan;102258.53;5063396;28;19920;-83
2023/08/21 07:04:29;;;;;;;;;;;;;;;29.08;nan;102256.28;5062507;28;20138;-81
2023/08/21 07:06:54;;;;;;;;;;;;;;;29.05;nan;102245.13;5060521;28;19920;-81
2023/08/21 07:09:20;;;;;;;;;;;;;;;29.06;nan;102246.75;5056279;28;19929;-81
2023/08/21 07:11:45;;;;;;;;;;;;;;;29.16;nan;102249.09;5059714;28;19917;-81
2023/08/21 07:14:13;;;;;;;;;;;;;;;29.31;nan;102242.16;5061525;28;19924;-81
2023/08/21 07:16:38;;;;;;;;;;;;;;;29.45;nan;102242.66;5058231;28;20613;-81
2023/08/21 07:19:04;;;;;;;;;;;;;;;29.52;nan;102237.41;5066079;28;19917;-81
2023/08/21 07:21:29;;;;;;;;;;;;;;;29.60;nan;102241.22;5063004;28;20016;-82
2023/08/21 07:23:54;;;;;;;;;;;;;;;29.63;nan;102238.59;5061288;28;20346;-82
2023/08/21 07:26:20;;;;;;;;;;;;;;;29.73;nan;102246.44;5064602;28;20295;-83
2023/08/21 07:28:45;;;;;;;;;;;;;;;29.90;nan;102247.38;5061871;28;20069;-82
2023/08/21 07:31:10;;;;;;;;;;;;;;;29.97;nan;102242.88;5066511;28;20469;-82
2023/08/21 07:33:36;;;;;;;;;;;;;;;29.97;nan;102242.88;5064457;28;20167;-83
2023/08/21 07:36:03;;;;;;;;;;;;;;;29.98;nan;102254.75;5063344;28;19920;-82
2023/08/21 07:38:28;;;;;;;;;;;;;;;29.94;nan;102245.53;5060036;28;19951;-82
2023/08/21 07:41:04;;;;;;;;;;;;;;;29.97;nan;102253.13;5064065;28;19948;-82
2023/08/21 07:43:30;;;;;;;;;;;;;;;29.89;nan;102260.38;5063310;28;19999;-83
2023/08/21 07:45:55;;;;;;;;;;;;;;;29.90;nan;102252.91;5059687;28;20011;-82
2023/08/21 07:48:20;;;;;;;;;;;;;;;29.88;nan;102255.22;5062032;28;19923;-82
2023/08/21 07:50:53;;;;;;;;;;;;;;;29.93;nan;102257.75;5066589;28;19920;-80
2023/08/21 07:53:18;;;;;;;;;;;;;;;29.99;nan;102250.84;5062682;28;19920;-80
2023/08/21 07:55:43;;;;;;;;;;;;;;;30.08;nan;102248.81;5064281;28;20450;-80
2023/08/21 07:58:09;;;;;;;;;;;;;;;30.19;nan;102260.22;5064599;28;20299;-81
2023/08/21 08:00:35;;;;;;;;;;;;;;;30.30;nan;102251.09;5066814;28;19930;-81
2023/08/21 08:03:00;;;;;;;;;;;;;;;30.43;nan;102251.09;5063859;28;19917;-82
2023/08/21 08:05:25;;;;;;;;;;;;;;;30.61;nan;102249.69;5057035;28;19924;-82
2023/08/21 08:07:51;;;;;;;;;;;;;;;30.73;nan;102237.84;5062850;28;19970;-83
2023/08/21 08:10:16;;;;;;;;;;;;;;;30.74;nan;102240.25;5064295;28;19928;-83
2023/08/21 08:12:42;;;;;;;;;;;;;;;30.80;nan;102240.81;5064306;28;19927;-83
2023/08/21 08:15:07;;;;;;;;;;;;;;;30.87;nan;102244.56;5064890;28;19985;-82
2023/08/21 08:17:33;;;;;;;;;;;;;;;30.87;nan;102250.09;5060914;28;19921;-83
2023/08/21 08:19:58;;;;;;;;;;;;;;;30.93;nan;102259.78;5062194;28;19978;-83
2023/08/21 08:22:23;;;;;;;;;;;;;;;30.94;nan;102261.41;5062653;28;19962;-83
2023/08/21 08:24:48;;;;;;;;;;;;;;;31.04;nan;102256.50;5061570;28;20387;-83
2023/08/21 08:27:14;;;;;;;;;;;;;;;31.12;nan;102263.88;5058971;28;19920;-81
2023/08/21 08:29:39;;;;;;;;;;;;;;;31.19;nan;102259.38;5063077;28;19928;-81
2023/08/21 08:32:05;;;;;;;;;;;;;;;31.16;nan;102262.00;5061539;28;19917;-82
2023/08/21 08:34:30;;;;;;;;;;;;;;;31.14;nan;102254.06;5061024;28;19948;-82
2023/08/21 08:36:56;;;;;;;;;;;;;;;31.19;nan;102253.03;5063251;28;20125;-81
2023/08/21 08:39:21;;;;;;;;;;;;;;;31.29;nan;102251.72;5055947;28;20414;-82
2023/08/21 08:41:47;;;;;;;;;;;;;;;31.43;nan;102241.06;5066112;28;19999;-82
2023/08/21 08:44:13;;;;;;;;;;;;;;;31.66;nan;102247.59;5061266;28;20454;-81
2023/08/21 08:46:38;;;;;;;;;;;;;;;31.77;nan;102253.44;5061233;28;19924;-82
2023/08/21 08:49:04;;;;;;;;;;;;;;;31.84;nan;102237.81;5057846;28;19931;-81
2023/08/21 08:51:31;;;;;;;;;;;;;;;31.83;nan;102235.38;5059811;28;20319;-82
2023/08/21 08:53:58;;;;;;;;;;;;;;;31.79;nan;102231.72;5058489;28;20452;-82
2023/08/21 08:56:23;;;;;;;;;;;;;;;31.81;nan;102235.75;5057343;28;19956;-82
2023/08/21 08:58:48;;;;;;;;;;;;;;;31.82;nan;102233.78;5062603;28;20010;-82
2023/08/21 09:01:14;;;;;;;;;;;;;;;31.85;nan;102236.63;5060838;28;19920;-82
2023/08/21 09:03:40;;;;;;;;;;;;;;;31.88;nan;102228.75;5062053;28;20300;-82
2023/08/21 09:06:05;;;;;;;;;;;;;;;31.96;nan;102230.53;5057051;28;19924;-82
2023/08/21 09:08:30;;;;;;;;;;;;;;;32.06;nan;102230.81;5061525;28;20376;-82
2023/08/21 09:11:00;;;;;;;;;;;;;;;32.14;nan;102232.59;5055537;28;20029;-83
2023/08/21 09:13:26;;;;;;;;;;;;;;;32.25;nan;102232.03;5058980;28;19966;-82
2023/08/21 09:15:57;;;;;;;;;;;;;;;32.30;nan;102226.22;5062674;28;20406;-84
2023/08/21 09:18:22;;;;;;;;;;;;;;;32.33;nan;102222.75;5058612;28;19927;-81
2023/08/21 09:20:48;;;;;;;;;;;;;;;32.28;nan;102220.25;5059909;28;19928;-82
2023/08/21 09:23:14;;;;;;;;;;;;;;;32.22;nan;102222.47;5054487;28;19924;-82
2023/08/21 09:25:40;;;;;;;;;;;;;;;32.26;nan;102217.00;5058219;28;19952;-82
2023/08/21 09:28:06;;;;;;;;;;;;;;;32.29;nan;102206.03;5061149;28;20352;-83
2023/08/21 09:30:48;;;;;;;;;;;;;;;32.34;nan;102210.50;5064161;28;19920;-83
2023/08/21 09:33:16;;;;;;;;;;;;;;;32.43;nan;102211.88;5058820;28;20502;-83
2023/08/21 09:35:42;;;;;;;;;;;;;;;32.63;nan;102209.13;5058644;28;19969;-83
2023/08/21 09:38:07;;;;;;;;;;;;;;;32.77;nan;102201.13;5061187;28;20358;-83
2023/08/21 09:40:33;;;;;;;;;;;;;;;32.99;nan;102205.16;5063470;28;19916;-83
2023/08/21 09:42:59;;;;;;;;;;;;;;;33.09;nan;102193.47;5055145;28;19916;-82
2023/08/21 09:45:25;;;;;;;;;;;;;;;33.16;nan;102206.66;5060799;28;20369;-83
2023/08/21 09:47:53;;;;;;;;;;;;;;;33.26;nan;102197.75;5058346;28;19921;-82
2023/08/21 09:50:18;;;;;;;;;;;;;;;33.34;nan;102194.75;5056901;28;19955;-82
2023/08/21 09:52:44;;;;;;;;;;;;;;;33.35;nan;102201.91;5060131;28;19916;-82
2023/08/21 09:55:10;;;;;;;;;;;;;;;33.44;nan;102203.66;5058131;28;19928;-83
2023/08/21 09:57:36;;;;;;;;;;;;;;;33.41;nan;102196.88;5055980;28;20304;-83
2023/08/21 10:00:13;;;;;;;;;;;;;;;33.53;nan;102195.88;5054539;28;19916;-83
2023/08/21 10:02:39;;;;;;;;;;;;;;;33.64;nan;102192.09;5061296;28;19948;-83
2023/08/21 10:05:05;;;;;;;;;;;;;;;33.76;nan;102184.75;5057601;28;20014;-82
2023/08/21 10:07:30;;;;;;;;;;;;;;;33.99;nan;102188.31;5059038;28;19921;-82
2023/08/21 10:09:56;;;;;;;;;;;;;;;34.31;nan;102199.94;5058649;28;19928;-84
2023/08/21 10:12:22;;;;;;;;;;;;;;;34.53;nan;102187.13;5054021;28;19916;-83
2023/08/21 10:14:47;;;;;;;;;;;;;;;34.77;nan;102194.19;5054364;28;20512;-83
2023/08/21 10:17:12;;;;;;;;;;;;;;;34.80;nan;102183.06;5059449;28;19921;-83
2023/08/21 10:19:38;;;;;;;;;;;;;;;34.84;nan;102181.16;5058883;28;19979;-81
2023/08/21 10:22:03;;;;;;;;;;;;;;;34.81;nan;102183.88;5058343;28;19977;-81
2023/08/21 10:24:33;;;;;;;;;;;;;;;34.86;nan;102185.56;5052916;28;19921;-82
2023/08/21 10:26:59;;;;;;;;;;;;;;;34.96;nan;102182.88;5054488;28;19921;-81
2023/08/21 10:29:25;;;;;;;;;;;;;;;35.01;nan;102192.88;5056066;28;19925;-81
2023/08/21 10:32:01;;;;;;;;;;;;;;;35.11;nan;102184.66;5058641;28;19920;-82
2023/08/21 10:34:32;;;;;;;;;;;;;;;35.23;nan;102193.94;5061700;28;20476;-80
2023/08/21 10:37:00;;;;;;;;;;;;;;;35.34;nan;102190.03;5053614;28;19917;-81
2023/08/21 10:39:27;;;;;;;;;;;;;;;35.45;nan;102190.19;5057764;28;19952;-81
2023/08/21 10:41:55;;;;;;;;;;;;;;;35.59;nan;102183.94;5049384;28;19917;-83
2023/08/21 10:44:39;;;;;;;;;;;;;;;35.80;nan;102186.88;5057330;28;19917;-83
2023/08/21 10:47:15;;;;;;;;;;;;;;;36.07;nan;102181.13;5054002;28;19916;-83
2023/08/21 10:49:40;;;;;;;;;;;;;;;36.17;nan;102192.34;5062505;28;20018;-85
2023/08/21 10:52:07;;;;;;;;;;;;;;;36.27;nan;102188.84;5058003;28;20023;-83
2023/08/21 10:54:49;;;;;;;;;;;;;;;36.28;nan;102193.22;5061217;28;20331;-83
2023/08/21 10:57:14;;;;;;;;;;;;;;;36.22;nan;102191.97;5060094;28;19974;-83
2023/08/21 10:59:53;;;;;;;;;;;;;;;36.15;nan;102203.09;5060078;28;19924;-83
2023/08/21 11:02:18;;;;;;;;;;;;;;;36.02;nan;102199.81;5063873;28;19924;-81
2023/08/21 11:04:44;;;;;;;;;;;;;;;35.95;nan;102210.13;5057035;28;20502;-80
2023/08/21 11:07:09;;;;;;;;;;;;;;;35.93;nan;102204.94;5058625;28;19924;-81
2023/08/21 11:09:35;;;;;;;;;;;;;;;35.90;nan;102204.91;5054029;28;20061;-80
2023/08/21 11:12:05;;;;;;;;;;;;;;;35.93;nan;102202.16;5055202;28;20030;-81
2023/08/21 11:14:30;;;;;;;;;;;;;;;35.93;nan;102202.16;5064521;28;19920;-81
2023/08/21 11:16:55;;;;;;;;;;;;;;;36.05;nan;102208.59;5062771;28;19923;-81
2023/08/21 11:19:21;;;;;;;;;;;;;;;36.14;nan;102195.13;5064053;28;19920;-81
2023/08/21 11:21:50;;;;;;;;;;;;;;;36.24;nan;102206.31;5055942;28;20420;-81
2023/08/21 11:24:16;;;;;;;;;;;;;;;36.24;nan;102199.94;5055928;28;19916;-82
2023/08/21 11:26:41;;;;;;;;;;;;;;;36.33;nan;102189.28;5055793;28;19928;-83
2023/08/21 11:29:06;;;;;;;;;;;;;;;36.46;nan;102192.53;5051008;28;20297;-83
2023/08/21 11:31:31;;;;;;;;;;;;;;;36.64;nan;102190.63;5055206;28;19916;-83
2023/08/21 11:33:57;;;;;;;;;;;;;;;36.75;nan;102194.25;5053898;28;20293;-83
2023/08/21 11:36:22;;;;;;;;;;;;;;;36.95;nan;102186.34;5063711;28;20376;-82
2023/08/21 11:39:01;;;;;;;;;;;;;;;37.09;nan;102186.38;5052353;28;19920;-81
2023/08/21 11:41:26;;;;;;;;;;;;;;;37.10;nan;102201.16;5054156;28;19920;-83
2023/08/21 11:43:52;;;;;;;;;;;;;;;36.90;nan;102195.91;5059684;28;19927;-83
2023/08/21 11:46:18;;;;;;;;;;;;;;;36.66;nan;102193.03;5052772;28;20439;-83
2023/08/21 11:48:44;;;;;;;;;;;;;;;36.46;nan;102193.34;5052746;28;19924;-81
2023/08/21 11:51:10;;;;;;;;;;;;;;;36.41;nan;102204.06;5060232;28;20281;-81
2023/08/21 11:53:36;;;;;;;;;;;;;;;36.52;nan;102196.56;5059864;28;19917;-84
2023/08/21 11:56:03;;;;;;;;;;;;;;;36.62;nan;102190.19;5065377;28;19944;-81
2023/08/21 11:58:28;;;;;;;;;;;;;;;36.69;nan;102197.81;5057784;28;20383;-81
2023/08/21 12:00:53;;;;;;;;;;;;;;;36.75;nan;102187.84;5052515;28;19916;-83
2023/08/21 12:03:19;;;;;;;;;;;;;;;36.64;nan;102190.63;5058949;28;19920;-82
2023/08/21 12:05:44;;;;;;;;;;;;;;;36.59;nan;102182.59;5060055;28;20411;-83
2023/08/21 12:08:09;;;;;;;;;;;;;;;36.65;nan;102181.06;5057762;28;19920;-83
2023/08/21 12:10:35;;;;;;;;;;;;;;;36.83;nan;102189.53;5063256;28;20372;-83
2023/08/21 12:13:00;;;;;;;;;;;;;;;37.03;nan;102185.19;5065256;28;19924;-82
2023/08/21 12:15:26;;;;;;;;;;;;;;;37.23;nan;102182.81;5062307;28;20144;-83
2023/08/21 12:17:51;;;;;;;;;;;;;;;37.46;nan;102190.84;5061181;28;19916;-83
2023/08/21 12:20:17;;;;;;;;;;;;;;;37.53;nan;102192.88;5064769;28;19925;-83
2023/08/21 12:22:42;;;;;;;;;;;;;;;37.58;nan;102193.25;5065735;28;19917;-84
2023/08/21 12:25:08;;;;;;;;;;;;;;;37.49;nan;102192.84;5064446;28;20158;-83
2023/08/21 12:27:33;;;;;;;;;;;;;;;37.42;nan;102193.66;5064692;28;19916;-84
2023/08/21 12:29:59;;;;;;;;;;;;;;;37.49;nan;102187.25;5058837;28;19921;-83
2023/08/21 12:32:24;;;;;;;;;;;;;;;37.57;nan;102182.47;5062346;28;20398;-82
2023/08/21 12:34:49;;;;;;;;;;;;;;;37.75;nan;102180.50;5058382;28;19951;-82
2023/08/21 12:37:15;;;;;;;;;;;;;;;37.96;nan;102176.88;5065501;28;19920;-82
2023/08/21 12:39:40;;;;;;;;;;;;;;;38.00;nan;102178.44;5060884;28;20368;-83
2023/08/21 12:42:07;;;;;;;;;;;;;;;37.95;nan;102178.06;5065481;28;20384;-83
2023/08/21 12:44:33;;;;;;;;;;;;;;;37.91;nan;102174.47;5060347;28;20415;-83
2023/08/21 12:46:58;;;;;;;;;;;;;;;37.88;nan;102167.66;5059322;28;20028;-82
2023/08/21 12:49:23;;;;;;;;;;;;;;;37.89;nan;102172.09;5063624;28;20046;-84
2023/08/21 12:51:48;;;;;;;;;;;;;;;38.00;nan;102164.44;5051736;28;20388;-83